createdAt,value
2019-03-05T00:01:29.623Z,143.85
2019-03-05T00:03:58.569Z,141.60
2019-03-05T00:06:35.736Z,141.70
2019-03-05T00:09:06.282Z,144.05
2019-03-05T00:11:38.568Z,144.28
2019-03-05T00:14:08.499Z,144.95
2019-03-05T00:16:35.788Z,141.90
2019-03-05T00:19:02.919Z,142.70
2019-03-05T00:21:31.146Z,143.52
2019-03-05T00:24:35.002Z,143.70
2019-03-05T00:27:02.161Z,142.87
2019-03-05T00:30:27.720Z,141.68
2019-03-05T00:33:28.985Z,145.12
2019-03-05T00:36:14.863Z,144.07
2019-03-05T00:39:22.599Z,142.65
2019-03-05T00:42:45.780Z,143.17
2019-03-05T00:45:38.558Z,141.62
2019-03-05T00:48:28.586Z,142.00
2019-03-05T00:51:59.130Z,143.10
2019-03-05T00:55:06.635Z,141.43
2019-03-05T00:57:49.002Z,141.75
2019-03-05T01:00:47.352Z,142.65
2019-03-05T01:04:03.293Z,142.15
2019-03-05T01:06:30.849Z,142.77
2019-03-05T01:09:25.599Z,142.18
2019-03-05T01:11:54.182Z,142.68
2019-03-05T01:14:23.954Z,142.57
2019-03-05T01:16:59.500Z,143.17
2019-03-05T01:19:27.179Z,143.45
2019-03-05T01:21:54.220Z,142.95
2019-03-05T01:24:21.477Z,144.47
2019-03-05T01:26:48.550Z,143.43
2019-03-05T01:29:16.708Z,143.75
2019-03-05T01:32:13.153Z,144.00
2019-03-05T01:35:07.316Z,145.02
2019-03-05T01:37:34.391Z,146.18
2019-03-05T01:40:09.673Z,143.87
2019-03-05T01:42:39.195Z,143.52
2019-03-05T01:45:10.085Z,143.78
2019-03-05T01:47:37.356Z,143.20
2019-03-05T01:50:06.142Z,142.13
2019-03-05T01:52:35.058Z,144.07
2019-03-05T01:55:02.174Z,141.30
2019-03-05T01:57:30.678Z,141.97
2019-03-05T01:59:59.522Z,142.30
2019-03-05T02:02:29.097Z,142.85
2019-03-05T02:04:57.521Z,142.45
2019-03-05T02:07:24.574Z,142.15
2019-03-05T02:09:51.789Z,142.53
2019-03-05T02:12:18.874Z,143.02
2019-03-05T02:14:46.066Z,142.53
2019-03-05T02:17:13.515Z,142.90
2019-03-05T02:19:43.006Z,143.65
2019-03-05T02:22:34.014Z,142.93
2019-03-05T02:25:28.655Z,145.72
2019-03-05T02:28:36.885Z,145.25
2019-03-05T02:31:47.755Z,143.45
2019-03-05T02:34:49.649Z,144.85
2019-03-05T02:37:41.046Z,144.62
2019-03-05T02:40:15.734Z,144.17
2019-03-05T02:43:15.811Z,143.28
2019-03-05T02:46:20.589Z,142.45
2019-03-05T02:49:39.484Z,143.15
2019-03-05T02:53:02.591Z,144.02
2019-03-05T02:56:08.358Z,142.43
2019-03-05T02:58:34.458Z,142.70
2019-03-05T03:01:27.473Z,143.28
2019-03-05T03:03:58.299Z,144.50
2019-03-05T03:06:29.705Z,141.35
2019-03-05T03:09:52.148Z,141.75
2019-03-05T03:12:24.291Z,140.77
2019-03-05T03:14:51.330Z,141.45
2019-03-05T03:17:21.267Z,142.18
2019-03-05T03:19:48.355Z,141.73
2019-03-05T03:22:17.570Z,142.15
2019-03-05T03:24:48.918Z,143.70
2019-03-05T03:27:17.128Z,144.32
2019-03-05T03:29:44.179Z,144.07
2019-03-05T03:32:12.057Z,145.53
2019-03-05T03:34:40.118Z,141.18
2019-03-05T03:37:07.605Z,141.60
2019-03-05T03:39:36.668Z,142.03
2019-03-05T03:42:05.003Z,142.60
2019-03-05T03:44:34.256Z,142.13
2019-03-05T03:47:01.908Z,141.28
2019-03-05T03:49:28.946Z,141.30
2019-03-05T03:51:58.488Z,145.92
2019-03-05T03:54:27.810Z,140.80
2019-03-05T03:56:56.648Z,143.57
2019-03-05T03:59:23.677Z,142.07
2019-03-05T04:02:00.057Z,143.17
2019-03-05T04:04:27.316Z,141.28
2019-03-05T04:06:57.498Z,142.72
2019-03-05T04:09:25.825Z,142.18
2019-03-05T04:11:52.844Z,143.32
2019-03-05T04:14:22.533Z,143.50
2019-03-05T04:16:51.050Z,143.22
2019-03-05T04:19:26.084Z,141.53
2019-03-05T04:21:55.484Z,141.80
2019-03-05T04:24:22.662Z,141.70
2019-03-05T04:26:49.697Z,141.75
2019-03-05T04:29:17.310Z,142.87
2019-03-05T04:31:47.977Z,143.40
2019-03-05T04:34:15.100Z,141.25
2019-03-05T04:36:42.123Z,143.15
2019-03-05T04:39:10.777Z,143.20
2019-03-05T04:41:40.972Z,142.98
2019-03-05T04:44:08.197Z,144.22
2019-03-05T04:46:51.848Z,142.80
2019-03-05T04:49:49.995Z,143.85
2019-03-05T04:52:22.470Z,143.47
2019-03-05T04:54:49.981Z,142.25
2019-03-05T04:57:17.255Z,144.30
2019-03-05T04:59:46.442Z,144.72
2019-03-05T05:02:14.826Z,143.55
2019-03-05T05:04:41.888Z,142.45
2019-03-05T05:07:09.287Z,142.03
2019-03-05T05:09:38.115Z,142.45
2019-03-05T05:12:12.529Z,142.28
2019-03-05T05:14:39.594Z,141.88
2019-03-05T05:17:08.333Z,142.60
2019-03-05T05:19:35.542Z,142.80
2019-03-05T05:22:05.378Z,142.90
2019-03-05T05:24:32.432Z,143.72
2019-03-05T05:26:59.814Z,142.20
2019-03-05T05:29:26.869Z,143.68
2019-03-05T05:31:53.925Z,143.40
2019-03-05T05:34:24.457Z,144.72
2019-03-05T05:36:52.015Z,144.15
2019-03-05T05:39:56.559Z,143.62
2019-03-05T05:42:25.797Z,143.02
2019-03-05T05:44:54.344Z,143.10
2019-03-05T05:47:22.376Z,144.53
2019-03-05T05:49:59.781Z,145.07
2019-03-05T05:52:28.996Z,143.87
2019-03-05T05:54:58.786Z,143.65
2019-03-05T05:57:32.499Z,141.82
2019-03-05T06:00:07.854Z,143.35
2019-03-05T06:02:35.170Z,141.90
2019-03-05T06:05:02.665Z,142.28
2019-03-05T06:07:32.166Z,142.47
2019-03-05T06:09:59.777Z,144.60
2019-03-05T06:12:31.493Z,143.28
2019-03-05T06:15:05.087Z,143.82
2019-03-05T06:17:34.137Z,145.15
2019-03-05T06:20:03.214Z,144.17
2019-03-05T06:22:30.817Z,147.13
2019-03-05T06:25:00.036Z,143.75
2019-03-05T06:27:28.302Z,142.43
2019-03-05T06:29:59.366Z,142.35
2019-03-05T06:32:28.363Z,142.28
2019-03-05T06:34:55.866Z,143.40
2019-03-05T06:37:26.204Z,144.05
2019-03-05T06:39:55.694Z,142.85
2019-03-05T06:42:23.471Z,144.95
2019-03-05T06:44:50.995Z,142.75
2019-03-05T06:47:19.614Z,144.97
2019-03-05T06:49:49.792Z,145.43
2019-03-05T06:52:16.907Z,146.10
2019-03-05T06:54:48.387Z,149.25
2019-03-05T06:57:15.555Z,144.15
2019-03-05T06:59:42.714Z,145.90
2019-03-05T07:02:09.747Z,147.00
2019-03-05T07:04:37.172Z,146.30
2019-03-05T07:07:04.238Z,146.57
2019-03-05T07:10:05.002Z,145.25
2019-03-05T07:13:04.206Z,144.20
2019-03-05T07:16:18.293Z,145.12
2019-03-05T07:18:56.876Z,145.45
2019-03-05T07:22:07.634Z,143.62
2019-03-05T07:24:48.544Z,142.57
2019-03-05T07:27:36.272Z,142.22
2019-03-05T07:30:18.064Z,142.98
2019-03-05T07:32:45.692Z,142.25
2019-03-05T07:35:14.859Z,143.43
2019-03-05T07:37:42.061Z,142.00
2019-03-05T07:40:10.644Z,143.02
2019-03-05T07:42:37.715Z,142.82
2019-03-05T07:45:05.044Z,142.37
2019-03-05T07:47:33.906Z,143.80
2019-03-05T07:50:01.940Z,143.82
2019-03-05T07:52:32.759Z,146.53
2019-03-05T07:54:59.853Z,145.17
2019-03-05T07:57:26.918Z,144.53
2019-03-05T07:59:53.959Z,144.13
2019-03-05T08:02:21.071Z,144.30
2019-03-05T08:04:48.520Z,145.35
2019-03-05T08:07:16.907Z,143.93
2019-03-05T08:09:43.958Z,144.00
2019-03-05T08:12:50.048Z,145.57
2019-03-05T08:16:02.063Z,145.77
2019-03-05T08:18:22.638Z,144.10
2019-03-05T08:20:52.116Z,142.93
2019-03-05T08:23:19.208Z,143.93
2019-03-05T08:25:46.547Z,143.22
2019-03-05T08:28:13.652Z,144.77
2019-03-05T08:30:40.674Z,144.25
2019-03-05T08:33:07.727Z,144.47
2019-03-05T08:35:36.549Z,143.75
2019-03-05T08:38:05.954Z,145.07
2019-03-05T08:40:36.595Z,145.45
2019-03-05T08:43:03.809Z,146.30
2019-03-05T08:45:30.845Z,144.55
2019-03-05T08:47:57.942Z,145.25
2019-03-05T08:50:27.251Z,146.62
2019-03-05T08:52:56.187Z,143.43
2019-03-05T08:55:25.047Z,145.75
2019-03-05T08:57:52.161Z,142.43
2019-03-05T09:00:19.518Z,144.35
2019-03-05T09:03:07.960Z,143.82
2019-03-05T09:05:41.260Z,145.07
2019-03-05T09:08:10.890Z,143.07
2019-03-05T09:10:38.019Z,144.95
2019-03-05T09:13:09.516Z,145.00
2019-03-05T09:15:36.845Z,144.82
2019-03-05T09:18:04.138Z,145.62
2019-03-05T09:20:31.496Z,145.15
2019-03-05T09:23:02.144Z,147.20
2019-03-05T09:25:31.151Z,145.57
2019-03-05T09:27:58.240Z,143.78
2019-03-05T09:30:25.652Z,144.97
2019-03-05T09:32:53.761Z,144.93
2019-03-05T09:35:20.918Z,143.70
2019-03-05T09:37:48.152Z,148.22
2019-03-05T09:40:18.048Z,144.17
2019-03-05T09:42:45.409Z,145.10
2019-03-05T09:45:14.781Z,145.15
2019-03-05T09:47:46.122Z,147.93
2019-03-05T09:50:17.064Z,145.40
2019-03-05T09:52:54.472Z,145.38
2019-03-05T09:55:16.393Z,145.40
2019-03-05T09:57:43.671Z,146.00
2019-03-05T10:00:14.072Z,146.45
2019-03-05T10:02:41.221Z,143.95
2019-03-05T10:05:09.233Z,143.35
2019-03-05T10:07:39.264Z,143.70
2019-03-05T10:10:14.615Z,142.70
2019-03-05T10:12:41.876Z,143.15
2019-03-05T10:15:12.572Z,143.60
2019-03-05T10:17:40.153Z,142.72
2019-03-05T10:20:13.529Z,143.30
2019-03-05T10:22:41.310Z,142.72
2019-03-05T10:25:09.844Z,142.72
2019-03-05T10:27:38.529Z,143.30
2019-03-05T10:30:11.763Z,144.00
2019-03-05T10:32:40.696Z,143.35
2019-03-05T10:35:08.042Z,144.10
2019-03-05T10:37:35.729Z,143.52
2019-03-05T10:40:03.306Z,140.95
2019-03-05T10:42:41.325Z,142.85
2019-03-05T10:45:19.938Z,141.77
2019-03-05T10:47:51.251Z,142.37
2019-03-05T10:50:22.144Z,143.02
2019-03-05T10:52:50.267Z,142.47
2019-03-05T10:55:25.913Z,142.87
2019-03-05T10:57:47.101Z,143.68
2019-03-05T11:00:18.107Z,142.77
2019-03-05T11:02:47.440Z,142.20
2019-03-05T11:05:16.399Z,141.95
2019-03-05T11:07:44.483Z,144.65
2019-03-05T11:10:15.450Z,145.55
2019-03-05T11:12:46.348Z,144.77
2019-03-05T11:15:25.229Z,142.47
2019-03-05T11:17:55.539Z,141.53
2019-03-05T11:20:24.870Z,141.35
2019-03-05T11:22:55.371Z,143.52
2019-03-05T11:25:26.610Z,142.65
2019-03-05T11:28:03.504Z,142.37
2019-03-05T11:30:36.223Z,141.53
2019-03-05T11:33:00.238Z,141.07
2019-03-05T11:35:27.521Z,141.07
2019-03-05T11:37:55.952Z,142.28
2019-03-05T11:40:29.895Z,140.40
2019-03-05T11:43:01.920Z,140.45
2019-03-05T11:45:34.867Z,140.20
2019-03-05T11:48:02.149Z,142.68
2019-03-05T11:50:30.241Z,140.82
2019-03-05T11:52:58.418Z,141.90
2019-03-05T11:55:27.142Z,141.73
2019-03-05T11:58:08.802Z,140.50
2019-03-05T12:01:00.429Z,142.37
2019-03-05T12:03:30.838Z,144.70
2019-03-05T12:05:59.685Z,143.35
2019-03-05T12:08:26.853Z,143.17
2019-03-05T12:10:54.158Z,144.05
2019-03-05T12:13:26.489Z,143.82
2019-03-05T12:15:53.521Z,144.32
2019-03-05T12:18:21.065Z,145.53
2019-03-05T12:20:50.751Z,147.02
2019-03-05T12:23:22.244Z,145.35
2019-03-05T12:25:51.358Z,143.97
2019-03-05T12:28:18.795Z,143.55
2019-03-05T12:30:51.740Z,145.70
2019-03-05T12:33:23.349Z,144.32
2019-03-05T12:35:52.889Z,145.28
2019-03-05T12:38:24.857Z,146.50
2019-03-05T12:40:52.168Z,145.53
2019-03-05T12:43:21.759Z,146.30
2019-03-05T12:45:52.494Z,144.47
2019-03-05T12:48:19.857Z,145.22
2019-03-05T12:51:11.456Z,143.68
2019-03-05T12:53:38.661Z,147.10
2019-03-05T12:56:09.958Z,143.43
2019-03-05T12:58:39.974Z,143.37
2019-03-05T13:01:08.006Z,145.30
2019-03-05T13:03:36.521Z,143.75
2019-03-05T13:06:09.956Z,143.72
2019-03-05T13:08:37.045Z,142.80
2019-03-05T13:11:04.070Z,144.93
2019-03-05T13:13:31.299Z,143.50
2019-03-05T13:15:58.334Z,143.02
2019-03-05T13:18:26.793Z,143.30
2019-03-05T13:20:57.002Z,142.93
2019-03-05T13:23:24.931Z,143.10
2019-03-05T13:25:53.620Z,146.00
2019-03-05T13:28:21.959Z,149.20
2019-03-05T13:30:49.031Z,146.68
2019-03-05T13:33:18.223Z,146.70
2019-03-05T13:35:45.767Z,147.25
2019-03-05T13:38:14.361Z,148.05
2019-03-05T13:40:41.461Z,145.30
2019-03-05T13:43:08.589Z,145.90
2019-03-05T13:45:37.545Z,145.72
2019-03-05T13:48:19.659Z,146.02
2019-03-05T13:51:23.214Z,146.90
2019-03-05T13:54:29.721Z,142.13
2019-03-05T13:57:43.708Z,143.45
2019-03-05T14:00:18.588Z,143.45
2019-03-05T14:03:28.365Z,146.62
2019-03-05T14:07:00.251Z,145.80
2019-03-05T14:09:26.592Z,144.87
2019-03-05T14:11:54.996Z,144.62
2019-03-05T14:14:27.024Z,148.43
2019-03-05T14:17:36.377Z,146.90
2019-03-05T14:20:08.197Z,146.25
2019-03-05T14:22:35.347Z,148.80
2019-03-05T14:25:10.556Z,147.70
2019-03-05T14:27:50.158Z,148.53
2019-03-05T14:30:21.034Z,148.38
2019-03-05T14:32:48.880Z,150.97
2019-03-05T14:35:18.269Z,146.15
2019-03-05T14:37:45.736Z,147.93
2019-03-05T14:40:24.207Z,147.57
2019-03-05T14:42:45.173Z,148.13
2019-03-05T14:45:16.967Z,145.70
2019-03-05T14:47:44.097Z,146.47
2019-03-05T14:50:11.150Z,146.43
2019-03-05T14:52:43.832Z,145.10
2019-03-05T14:55:12.510Z,145.38
2019-03-05T14:57:40.285Z,149.32
2019-03-05T15:00:10.386Z,146.10
2019-03-05T15:02:40.811Z,146.25
2019-03-05T15:05:08.829Z,145.92
2019-03-05T15:07:40.738Z,146.85
2019-03-05T15:10:12.324Z,144.25
2019-03-05T15:12:40.007Z,143.70
2019-03-05T15:15:11.244Z,144.22
2019-03-05T15:17:38.357Z,144.97
2019-03-05T15:20:06.611Z,146.02
2019-03-05T15:22:33.713Z,145.75
2019-03-05T15:25:04.493Z,147.60
2019-03-05T15:27:31.607Z,149.00
2019-03-05T15:29:59.774Z,148.17
2019-03-05T15:32:28.628Z,146.13
2019-03-05T15:34:55.834Z,145.90
2019-03-05T15:37:23.763Z,147.80
2019-03-05T15:39:50.935Z,149.27
2019-03-05T15:42:22.660Z,147.07
2019-03-05T15:44:53.369Z,145.90
2019-03-05T15:47:20.505Z,148.17
2019-03-05T15:49:48.088Z,149.95
2019-03-05T15:52:17.082Z,146.55
2019-03-05T15:54:45.320Z,150.10
2019-03-05T15:57:14.409Z,147.05
2019-03-05T15:59:47.311Z,147.45
2019-03-05T16:02:16.852Z,147.68
2019-03-05T16:04:46.123Z,146.82
2019-03-05T16:07:43.950Z,145.57
2019-03-05T16:10:17.428Z,146.87
2019-03-05T16:12:48.421Z,149.40
2019-03-05T16:15:18.945Z,149.70
2019-03-05T16:17:50.523Z,149.97
2019-03-05T16:20:17.846Z,148.17
2019-03-05T16:22:47.282Z,148.97
2019-03-05T16:25:14.926Z,148.50
2019-03-05T16:27:43.912Z,148.50
2019-03-05T16:30:34.357Z,150.00
2019-03-05T16:33:32.335Z,147.98
2019-03-05T16:36:06.229Z,148.57
2019-03-05T16:38:56.083Z,149.32
2019-03-05T16:41:43.281Z,147.22
2019-03-05T16:44:55.818Z,148.55
2019-03-05T16:47:36.495Z,148.75
2019-03-05T16:50:21.489Z,149.38
2019-03-05T16:53:07.320Z,149.35
2019-03-05T16:56:05.567Z,146.18
2019-03-05T16:58:50.997Z,146.00
2019-03-05T17:01:35.871Z,146.40
2019-03-05T17:04:14.088Z,146.85
2019-03-05T17:07:00.852Z,147.98
2019-03-05T17:09:53.681Z,148.17
2019-03-05T17:12:22.958Z,147.15
2019-03-05T17:14:51.579Z,147.37
2019-03-05T17:17:18.817Z,146.60
2019-03-05T17:19:46.190Z,147.95
2019-03-05T17:22:14.045Z,144.93
2019-03-05T17:24:43.233Z,145.22
2019-03-05T17:27:10.640Z,145.62
2019-03-05T17:29:38.047Z,145.57
2019-03-05T17:32:34.463Z,148.07
2019-03-05T17:35:17.037Z,145.05
2019-03-05T17:37:48.077Z,147.28
2019-03-05T17:40:16.689Z,145.30
2019-03-05T17:42:44.048Z,146.40
2019-03-05T17:45:16.000Z,144.28
2019-03-05T17:47:43.558Z,144.90
2019-03-05T17:50:14.675Z,144.85
2019-03-05T17:52:44.127Z,144.10
2019-03-05T17:55:23.781Z,144.07
2019-03-05T17:57:44.190Z,141.97
2019-03-05T18:00:17.583Z,144.77
2019-03-05T18:02:45.427Z,144.68
2019-03-05T18:05:15.423Z,146.05
2019-03-05T18:07:50.191Z,143.93
2019-03-05T18:10:17.938Z,142.45
2019-03-05T18:12:47.122Z,144.07
2019-03-05T18:15:14.634Z,146.53
2019-03-05T18:17:42.921Z,142.37
2019-03-05T18:20:13.173Z,143.95
2019-03-05T18:22:40.678Z,145.12
2019-03-05T18:25:08.913Z,145.50
2019-03-05T18:27:39.099Z,145.02
2019-03-05T18:30:12.076Z,144.13
2019-03-05T18:32:41.640Z,143.90
2019-03-05T18:35:10.107Z,143.05
2019-03-05T18:37:40.735Z,144.17
2019-03-05T18:40:11.470Z,147.60
2019-03-05T18:42:38.880Z,143.78
2019-03-05T18:45:16.828Z,144.45
2019-03-05T18:47:44.018Z,144.45
2019-03-05T18:50:14.825Z,144.80
2019-03-05T18:52:41.947Z,146.37
2019-03-05T18:55:10.795Z,143.22
2019-03-05T18:57:38.649Z,145.95
2019-03-05T19:00:08.075Z,142.98
2019-03-05T19:02:37.251Z,143.97
2019-03-05T19:05:08.100Z,144.13
2019-03-05T19:07:38.554Z,143.40
2019-03-05T19:10:09.359Z,143.95
2019-03-05T19:12:36.778Z,144.37
2019-03-05T19:15:04.965Z,144.30
2019-03-05T19:17:34.095Z,144.20
2019-03-05T19:20:03.189Z,147.50
2019-03-05T19:22:30.805Z,147.15
2019-03-05T19:24:57.978Z,145.00
2019-03-05T19:27:26.452Z,145.05
2019-03-05T19:29:53.797Z,147.40
2019-03-05T19:32:20.994Z,148.28
2019-03-05T19:34:48.127Z,146.65
2019-03-05T19:37:15.174Z,147.68
2019-03-05T19:39:42.929Z,147.95
2019-03-05T19:42:09.994Z,147.32
2019-03-05T19:44:37.291Z,145.10
2019-03-05T19:47:04.833Z,147.22
2019-03-05T19:49:32.466Z,146.98
2019-03-05T19:52:00.790Z,146.35
2019-03-05T19:54:27.874Z,146.13
2019-03-05T19:56:55.046Z,146.90
2019-03-05T19:59:22.576Z,145.75
2019-03-05T20:01:49.977Z,147.55
2019-03-05T20:04:17.030Z,146.82
2019-03-05T20:06:44.184Z,149.10
2019-03-05T20:09:17.337Z,147.53
2019-03-05T20:11:44.489Z,146.37
2019-03-05T20:14:11.636Z,148.45
2019-03-05T20:16:39.139Z,146.85
2019-03-05T20:19:06.241Z,147.70
2019-03-05T20:21:33.700Z,148.57
2019-03-05T20:24:00.792Z,148.02
2019-03-05T20:26:27.968Z,150.05
2019-03-05T20:28:56.961Z,147.68
2019-03-05T20:31:24.499Z,147.85
2019-03-05T20:33:51.914Z,147.22
2019-03-05T20:36:18.957Z,147.25
2019-03-05T20:38:49.841Z,146.90
2019-03-05T20:41:18.849Z,145.75
2019-03-05T20:43:46.129Z,146.57
2019-03-05T20:46:17.604Z,145.82
2019-03-05T20:48:44.744Z,148.00
2019-03-05T20:51:11.822Z,145.17
2019-03-05T20:53:39.078Z,148.47
2019-03-05T20:56:06.666Z,151.47
2019-03-05T20:58:34.390Z,150.03
2019-03-05T21:01:02.698Z,149.97
2019-03-05T21:03:29.968Z,147.90
2019-03-05T21:05:57.117Z,150.05
2019-03-05T21:08:24.736Z,149.60
2019-03-05T21:10:52.242Z,149.97
2019-03-05T21:13:19.969Z,147.90
2019-03-05T21:15:47.251Z,149.60
2019-03-05T21:18:14.335Z,149.95
2019-03-05T21:20:41.918Z,148.47
2019-03-05T21:23:09.245Z,147.90
2019-03-05T21:25:36.645Z,146.20
2019-03-05T21:28:03.906Z,147.10
2019-03-05T21:30:33.176Z,147.82
2019-03-05T21:33:00.621Z,148.10
2019-03-05T21:35:28.264Z,148.50
2019-03-05T21:37:57.955Z,149.27
2019-03-05T21:40:26.992Z,147.72
2019-03-05T21:42:54.243Z,147.25
2019-03-05T21:45:24.898Z,148.07
2019-03-05T21:47:52.163Z,149.90
2019-03-05T21:50:19.805Z,149.50
2019-03-05T21:52:47.170Z,149.00
2019-03-05T21:55:15.060Z,150.30
2019-03-05T21:57:42.511Z,149.38
2019-03-05T22:00:13.615Z,149.35
2019-03-05T22:02:41.202Z,149.05
2019-03-05T22:05:08.988Z,149.82
2019-03-05T22:07:36.797Z,147.90
2019-03-05T22:10:04.955Z,148.57
2019-03-05T22:12:32.493Z,147.80
2019-03-05T22:15:02.149Z,148.90
2019-03-05T22:17:29.791Z,148.05
2019-03-05T22:19:57.049Z,147.95
2019-03-05T22:22:24.239Z,146.70
2019-03-05T22:24:52.420Z,146.40
2019-03-05T22:27:19.582Z,147.85
2019-03-05T22:29:46.779Z,145.97
2019-03-05T22:32:13.811Z,146.93
2019-03-05T22:34:40.989Z,145.40
2019-03-05T22:37:08.088Z,147.35
2019-03-05T22:39:35.262Z,146.53
2019-03-05T22:42:02.543Z,144.87
2019-03-05T22:44:32.911Z,144.68
2019-03-05T22:46:59.979Z,145.95
2019-03-05T22:49:27.111Z,144.15
2019-03-05T22:51:54.398Z,145.38
2019-03-05T22:54:21.451Z,145.07
2019-03-05T22:56:48.910Z,145.75
2019-03-05T22:59:16.051Z,145.20
2019-03-05T23:01:43.766Z,145.28
2019-03-05T23:04:15.124Z,144.62
2019-03-05T23:06:42.330Z,145.25
2019-03-05T23:09:21.319Z,144.62
2019-03-05T23:11:49.729Z,145.45
2019-03-05T23:14:17.104Z,145.65
2019-03-05T23:16:45.156Z,146.82
2019-03-05T23:19:14.378Z,145.55
2019-03-05T23:21:41.528Z,145.02
2019-03-05T23:24:08.596Z,144.47
2019-03-05T23:26:36.206Z,145.80
2019-03-05T23:29:05.090Z,146.65
2019-03-05T23:31:32.426Z,146.50
2019-03-05T23:34:00.034Z,148.15
2019-03-05T23:36:27.279Z,146.95
2019-03-05T23:38:54.582Z,147.20
2019-03-05T23:41:21.955Z,147.53
2019-03-05T23:43:50.126Z,148.02
2019-03-05T23:46:17.201Z,146.10
2019-03-05T23:48:44.360Z,146.45
2019-03-05T23:51:11.550Z,147.40
2019-03-05T23:53:40.202Z,147.10
2019-03-05T23:56:08.471Z,147.05
2019-03-05T23:58:35.601Z,146.43
